createdAt,value
2018-04-23T00:01:01.491Z,60.82
2018-04-23T00:03:27.551Z,60.81
2018-04-23T00:05:53.491Z,60.96
2018-04-23T00:08:19.452Z,60.87
2018-04-23T00:10:45.408Z,61.32
2018-04-23T00:13:11.367Z,61.11
2018-04-23T00:15:37.313Z,61.03
2018-04-23T00:18:03.380Z,61.04
2018-04-23T00:20:29.324Z,61.27
2018-04-23T00:22:55.269Z,61.55
2018-04-23T00:25:21.241Z,61.53
2018-04-23T00:27:47.184Z,61.37
2018-04-23T00:30:13.157Z,61.62
2018-04-23T00:32:39.121Z,61.50
2018-04-23T00:35:05.111Z,61.55
2018-04-23T00:37:31.049Z,61.22
2018-04-23T00:39:56.996Z,61.44
2018-04-23T00:42:22.943Z,61.60
2018-04-23T00:44:48.897Z,61.54
2018-04-23T00:47:14.844Z,61.60
2018-04-23T00:49:40.790Z,61.64
2018-04-23T00:52:06.766Z,61.50
2018-04-23T00:54:32.732Z,61.46
2018-04-23T00:56:58.735Z,61.34
2018-04-23T00:59:24.672Z,61.36
2018-04-23T01:01:50.640Z,61.26
2018-04-23T01:04:16.604Z,61.44
2018-04-23T01:06:42.563Z,61.49
2018-04-23T01:09:08.554Z,61.29
2018-04-23T01:11:34.492Z,61.31
2018-04-23T01:14:00.438Z,61.46
2018-04-23T01:16:26.439Z,61.65
2018-04-23T01:18:52.380Z,61.64
2018-04-23T01:21:18.317Z,61.63
2018-04-23T01:23:44.268Z,61.51
2018-04-23T01:26:10.219Z,61.54
2018-04-23T01:28:36.173Z,61.40
2018-04-23T01:31:02.109Z,61.82
2018-04-23T01:33:28.059Z,61.76
2018-04-23T01:35:54.075Z,61.50
2018-04-23T01:38:20.004Z,61.70
2018-04-23T01:40:45.976Z,61.75
2018-04-23T01:43:11.929Z,61.62
2018-04-23T01:45:37.888Z,61.54
2018-04-23T01:48:03.840Z,61.38
2018-04-23T01:50:29.788Z,61.50
2018-04-23T01:52:55.727Z,61.40
2018-04-23T01:55:21.669Z,61.71
2018-04-23T01:57:47.647Z,61.63
2018-04-23T02:00:13.588Z,61.50
2018-04-23T02:02:39.544Z,61.13
2018-04-23T02:05:05.487Z,61.31
2018-04-23T02:07:31.447Z,61.36
2018-04-23T02:09:57.418Z,61.58
2018-04-23T02:12:23.366Z,61.23
2018-04-23T02:14:49.336Z,61.35
2018-04-23T02:17:15.280Z,61.40
2018-04-23T02:19:41.248Z,61.76
2018-04-23T02:22:07.279Z,61.67
2018-04-23T02:24:33.224Z,61.17
2018-04-23T02:26:59.168Z,61.15
2018-04-23T02:29:25.104Z,61.41
2018-04-23T02:31:51.052Z,61.42
2018-04-23T02:34:17.040Z,61.09
2018-04-23T02:36:42.992Z,61.33
2018-04-23T02:39:08.935Z,61.22
2018-04-23T02:41:34.913Z,61.51
2018-04-23T02:44:00.873Z,61.24
2018-04-23T02:46:26.844Z,61.23
2018-04-23T02:48:52.800Z,61.29
2018-04-23T02:51:18.809Z,61.43
2018-04-23T02:53:44.771Z,61.30
2018-04-23T02:56:10.717Z,61.26
2018-04-23T02:58:36.669Z,61.21
2018-04-23T03:01:02.608Z,61.35
2018-04-23T03:03:28.609Z,61.68
2018-04-23T03:05:54.584Z,61.71
2018-04-23T03:08:20.516Z,61.84
2018-04-23T03:10:46.500Z,61.61
2018-04-23T03:13:12.444Z,61.46
2018-04-23T03:15:38.388Z,61.48
2018-04-23T03:18:04.337Z,61.23
2018-04-23T03:20:30.276Z,61.32
2018-04-23T03:22:56.241Z,61.09
2018-04-23T03:25:22.183Z,61.04
2018-04-23T03:27:48.151Z,61.45
2018-04-23T03:30:14.091Z,61.45
2018-04-23T03:32:40.040Z,61.12
2018-04-23T03:35:05.990Z,61.20
2018-04-23T03:37:31.939Z,61.27
2018-04-23T03:39:57.884Z,61.40
2018-04-23T03:42:23.826Z,61.32
2018-04-23T03:44:49.767Z,61.27
2018-04-23T03:47:15.719Z,61.63
2018-04-23T03:49:41.725Z,61.50
2018-04-23T03:52:07.655Z,61.63
2018-04-23T03:54:33.603Z,61.48
2018-04-23T03:56:59.564Z,61.62
2018-04-23T03:59:25.507Z,61.45
2018-04-23T04:01:51.454Z,61.55
2018-04-23T04:04:17.398Z,61.15
2018-04-23T04:06:43.356Z,61.82
2018-04-23T04:09:09.299Z,61.44
2018-04-23T04:11:35.247Z,61.51
2018-04-23T04:14:01.213Z,61.25
2018-04-23T04:16:27.159Z,61.36
2018-04-23T04:18:53.111Z,61.41
2018-04-23T04:21:19.116Z,61.31
2018-04-23T04:23:45.085Z,61.31
2018-04-23T04:26:11.032Z,61.35
2018-04-23T04:28:36.988Z,61.62
2018-04-23T04:31:03.036Z,61.49
2018-04-23T04:33:28.977Z,61.29
2018-04-23T04:35:54.919Z,61.35
2018-04-23T04:38:20.929Z,61.26
2018-04-23T04:40:46.824Z,61.48
2018-04-23T04:43:12.774Z,61.58
2018-04-23T04:45:38.727Z,61.50
2018-04-23T04:48:04.840Z,61.34
2018-04-23T04:50:30.779Z,61.22
2018-04-23T04:52:56.719Z,61.60
2018-04-23T04:55:22.653Z,61.45
2018-04-23T04:57:48.600Z,61.51
2018-04-23T05:00:14.560Z,61.42
2018-04-23T05:02:40.491Z,61.35
2018-04-23T05:05:06.432Z,61.37
2018-04-23T05:07:32.372Z,61.54
2018-04-23T05:09:58.308Z,61.39
2018-04-23T05:12:24.320Z,61.48
2018-04-23T05:14:50.263Z,61.64
2018-04-23T05:17:16.236Z,61.57
2018-04-23T05:19:42.163Z,61.38
2018-04-23T05:22:08.218Z,61.58
2018-04-23T05:24:34.171Z,61.49
2018-04-23T05:27:00.120Z,61.63
2018-04-23T05:29:26.063Z,61.47
2018-04-23T05:31:52.004Z,61.50
2018-04-23T05:34:17.945Z,61.39
2018-04-23T05:36:43.888Z,61.49
2018-04-23T05:39:09.868Z,61.68
2018-04-23T05:41:35.801Z,61.86
2018-04-23T05:44:01.822Z,61.23
2018-04-23T05:46:27.713Z,61.48
2018-04-23T05:48:53.669Z,61.35
2018-04-23T05:51:19.607Z,61.39
2018-04-23T05:53:45.568Z,61.44
2018-04-23T05:56:11.592Z,61.36
2018-04-23T05:58:37.615Z,61.13
2018-04-23T06:01:03.563Z,61.25
2018-04-23T06:03:29.592Z,61.26
2018-04-23T06:05:55.548Z,61.57
2018-04-23T06:08:21.514Z,61.44
2018-04-23T06:10:47.564Z,61.30
2018-04-23T06:13:13.512Z,61.37
2018-04-23T06:15:39.477Z,61.33
2018-04-23T06:18:05.441Z,60.74
2018-04-23T06:20:31.420Z,60.67
2018-04-23T06:22:57.352Z,60.70
2018-04-23T06:25:23.323Z,60.70
2018-04-23T06:27:49.261Z,60.51
2018-04-23T06:30:15.224Z,60.62
2018-04-23T06:32:41.164Z,61.08
2018-04-23T06:35:07.119Z,61.42
2018-04-23T06:37:33.065Z,61.34
2018-04-23T06:39:59.010Z,61.25
2018-04-23T06:42:25.017Z,60.88
2018-04-23T06:44:50.960Z,60.99
2018-04-23T06:47:16.903Z,61.14
2018-04-23T06:49:42.898Z,61.11
2018-04-23T06:52:08.834Z,61.33
2018-04-23T06:54:34.777Z,61.16
2018-04-23T06:57:00.832Z,61.28
2018-04-23T06:59:26.779Z,61.34
2018-04-23T07:01:52.762Z,61.42
2018-04-23T07:04:18.678Z,61.31
2018-04-23T07:06:44.636Z,61.22
2018-04-23T07:09:10.577Z,61.56
2018-04-23T07:11:36.560Z,61.60
2018-04-23T07:14:02.508Z,61.32
2018-04-23T07:16:28.504Z,61.15
2018-04-23T07:18:54.540Z,61.43
2018-04-23T07:21:20.572Z,61.41
2018-04-23T07:23:46.525Z,61.35
2018-04-23T07:26:12.463Z,61.34
2018-04-23T07:28:38.411Z,61.30
2018-04-23T07:31:04.364Z,61.29
2018-04-23T07:33:30.334Z,61.13
2018-04-23T07:35:56.276Z,61.29
2018-04-23T07:38:22.225Z,61.38
2018-04-23T07:40:48.186Z,61.30
2018-04-23T07:43:14.214Z,61.46
2018-04-23T07:45:40.164Z,61.51
2018-04-23T07:48:06.103Z,61.26
2018-04-23T07:50:32.044Z,61.13
2018-04-23T07:52:57.984Z,61.14
2018-04-23T07:55:23.924Z,61.22
2018-04-23T07:57:49.891Z,61.57
2018-04-23T08:00:15.864Z,61.49
2018-04-23T08:02:41.833Z,61.53
2018-04-23T08:05:07.798Z,61.21
2018-04-23T08:07:33.732Z,61.34
2018-04-23T08:09:59.673Z,61.81
2018-04-23T08:12:25.618Z,62.02
2018-04-23T08:14:51.570Z,61.44
2018-04-23T08:17:17.516Z,61.33
2018-04-23T08:19:43.503Z,61.21
2018-04-23T08:22:09.404Z,61.37
2018-04-23T08:24:35.484Z,62.00
2018-04-23T08:27:01.456Z,61.63
2018-04-23T08:29:27.407Z,61.63
2018-04-23T08:31:53.383Z,60.74
2018-04-23T08:34:19.332Z,60.93
2018-04-23T08:36:45.298Z,61.13
2018-04-23T08:39:11.252Z,61.16
2018-04-23T08:41:37.239Z,61.54
2018-04-23T08:44:03.180Z,61.80
2018-04-23T08:46:29.139Z,61.86
2018-04-23T08:48:55.216Z,61.65
2018-04-23T08:51:21.115Z,61.76
2018-04-23T08:53:47.061Z,61.61
2018-04-23T08:56:13.040Z,61.57
2018-04-23T08:58:38.996Z,60.94
2018-04-23T09:01:04.988Z,60.56
2018-04-23T09:03:30.929Z,60.90
2018-04-23T09:05:56.948Z,61.14
2018-04-23T09:08:22.913Z,61.49
2018-04-23T09:10:48.856Z,61.84
2018-04-23T09:13:14.835Z,61.75
2018-04-23T09:15:40.773Z,61.37
2018-04-23T09:18:06.729Z,61.27
2018-04-23T09:20:32.780Z,61.42
2018-04-23T09:22:58.751Z,61.54
2018-04-23T09:25:24.691Z,61.55
2018-04-23T09:27:50.650Z,61.84
2018-04-23T09:30:16.592Z,61.70
2018-04-23T09:32:42.557Z,61.93
2018-04-23T09:35:08.506Z,61.93
2018-04-23T09:37:34.451Z,61.75
2018-04-23T09:40:00.396Z,61.89
2018-04-23T09:42:26.355Z,61.64
2018-04-23T09:44:52.279Z,61.63
2018-04-23T09:47:18.265Z,61.45
2018-04-23T09:49:44.217Z,61.35
2018-04-23T09:52:10.157Z,61.55
2018-04-23T09:54:36.200Z,61.47
2018-04-23T09:57:02.184Z,61.33
2018-04-23T09:59:28.135Z,61.35
2018-04-23T10:01:54.088Z,61.41
2018-04-23T10:04:20.039Z,61.50
2018-04-23T10:06:45.988Z,61.55
2018-04-23T10:09:11.967Z,62.21
2018-04-23T10:11:37.908Z,61.78
2018-04-23T10:14:03.868Z,61.73
2018-04-23T10:16:29.821Z,61.63
2018-04-23T10:18:55.767Z,61.71
2018-04-23T10:21:21.716Z,61.58
2018-04-23T10:23:47.737Z,61.92
2018-04-23T10:26:13.676Z,61.83
2018-04-23T10:28:39.628Z,61.60
2018-04-23T10:31:05.603Z,62.21
2018-04-23T10:33:31.540Z,61.95
2018-04-23T10:35:57.508Z,62.22
2018-04-23T10:38:23.555Z,61.80
2018-04-23T10:40:49.455Z,61.36
2018-04-23T10:43:15.447Z,61.73
2018-04-23T10:45:41.388Z,61.35
2018-04-23T10:48:07.335Z,60.62
2018-04-23T10:50:33.279Z,61.13
2018-04-23T10:52:59.227Z,60.71
2018-04-23T10:55:25.207Z,60.48
2018-04-23T10:57:51.147Z,60.39
2018-04-23T11:00:17.096Z,59.40
2018-04-23T11:02:43.041Z,60.62
2018-04-23T11:05:08.995Z,60.96
2018-04-23T11:07:34.943Z,60.97
2018-04-23T11:10:00.912Z,61.19
2018-04-23T11:12:26.879Z,61.26
2018-04-23T11:14:52.888Z,61.46
2018-04-23T11:17:18.788Z,61.31
2018-04-23T11:19:44.758Z,61.33
2018-04-23T11:22:10.721Z,61.34
2018-04-23T11:24:36.652Z,61.39
2018-04-23T11:27:02.708Z,60.98
2018-04-23T11:29:28.892Z,60.99
2018-04-23T11:31:54.844Z,61.03
2018-04-23T11:34:20.804Z,61.36
2018-04-23T11:36:46.753Z,61.40
2018-04-23T11:39:12.696Z,61.39
2018-04-23T11:41:38.649Z,61.21
2018-04-23T11:44:04.575Z,61.38
2018-04-23T11:46:30.520Z,61.28
2018-04-23T11:48:56.465Z,61.14
2018-04-23T11:51:22.412Z,61.47
2018-04-23T11:53:48.388Z,61.21
2018-04-23T11:56:14.383Z,61.45
2018-04-23T11:58:40.348Z,61.73
2018-04-23T12:01:06.301Z,61.74
2018-04-23T12:03:32.277Z,61.63
2018-04-23T12:05:58.218Z,61.56
2018-04-23T12:08:24.164Z,61.49
2018-04-23T12:10:50.129Z,61.59
2018-04-23T12:13:16.092Z,61.53
2018-04-23T12:15:42.040Z,61.38
2018-04-23T12:18:08.000Z,61.48
2018-04-23T12:20:33.945Z,61.47
2018-04-23T12:23:00.015Z,61.60
2018-04-23T12:25:25.963Z,61.37
2018-04-23T12:27:51.912Z,61.55
2018-04-23T12:30:17.853Z,61.43
2018-04-23T12:32:43.792Z,61.32
2018-04-23T12:35:09.812Z,61.32
2018-04-23T12:37:35.749Z,61.33
2018-04-23T12:40:01.693Z,61.43
2018-04-23T12:42:27.651Z,61.28
2018-04-23T12:44:53.624Z,61.35
2018-04-23T12:47:19.662Z,61.68
2018-04-23T12:49:45.617Z,61.58
2018-04-23T12:52:11.571Z,61.42
2018-04-23T12:54:37.541Z,61.62
2018-04-23T12:57:03.512Z,61.35
2018-04-23T12:59:29.499Z,61.89
2018-04-23T13:01:55.473Z,61.57
2018-04-23T13:04:21.423Z,61.48
2018-04-23T13:06:47.363Z,61.57
2018-04-23T13:09:13.341Z,61.61
2018-04-23T13:11:39.352Z,61.55
2018-04-23T13:14:05.295Z,61.73
2018-04-23T13:16:31.257Z,61.52
2018-04-23T13:18:57.226Z,61.68
2018-04-23T13:21:23.164Z,61.25
2018-04-23T13:23:49.140Z,61.55
2018-04-23T13:26:15.095Z,61.64
2018-04-23T13:28:41.037Z,61.60
2018-04-23T13:31:07.005Z,61.95
2018-04-23T13:33:32.952Z,61.79
2018-04-23T13:35:58.903Z,62.21
2018-04-23T13:38:24.840Z,61.52
2018-04-23T13:40:50.871Z,61.07
2018-04-23T13:43:16.843Z,60.68
2018-04-23T13:45:42.776Z,60.31
2018-04-23T13:48:08.752Z,59.56
2018-04-23T13:50:34.691Z,60.13
2018-04-23T13:53:00.649Z,59.92
2018-04-23T13:55:26.593Z,58.08
2018-04-23T13:57:52.577Z,60.21
2018-04-23T14:00:18.519Z,58.24
2018-04-23T14:02:44.470Z,59.42
2018-04-23T14:05:10.421Z,59.10
2018-04-23T14:07:36.363Z,58.15
2018-04-23T14:10:02.332Z,58.31
2018-04-23T14:12:28.376Z,59.68
2018-04-23T14:14:54.359Z,59.40
2018-04-23T14:17:20.324Z,59.27
2018-04-23T14:19:46.279Z,57.67
2018-04-23T14:22:12.225Z,58.14
2018-04-23T14:24:38.159Z,58.31
2018-04-23T14:27:04.116Z,57.16
2018-04-23T14:29:30.066Z,59.16
2018-04-23T14:31:56.037Z,59.02
2018-04-23T14:34:22.018Z,58.46
2018-04-23T14:36:47.964Z,56.31
2018-04-23T14:39:13.923Z,58.18
2018-04-23T14:41:39.873Z,58.85
2018-04-23T14:44:05.903Z,55.12
2018-04-23T14:46:31.849Z,59.31
2018-04-23T14:48:57.821Z,59.13
2018-04-23T14:51:23.775Z,58.77
2018-04-23T14:53:49.720Z,56.75
2018-04-23T14:56:15.695Z,57.93
2018-04-23T14:58:41.642Z,59.33
2018-04-23T15:01:07.683Z,55.92
2018-04-23T15:03:33.635Z,55.94
2018-04-23T15:05:59.564Z,56.79
2018-04-23T15:08:25.588Z,58.68
2018-04-23T15:10:51.515Z,53.51
2018-04-23T15:13:17.477Z,54.65
2018-04-23T15:15:43.467Z,54.49
2018-04-23T15:18:09.400Z,57.00
2018-04-23T15:20:35.347Z,53.15
2018-04-23T15:23:01.376Z,52.25
2018-04-23T15:25:27.355Z,53.53
2018-04-23T15:27:53.323Z,55.83
2018-04-23T15:30:19.264Z,52.79
2018-04-23T15:32:45.243Z,51.86
2018-04-23T15:35:11.267Z,51.96
2018-04-23T15:37:37.174Z,51.28
2018-04-23T15:40:03.149Z,50.26
2018-04-23T15:42:29.124Z,50.59
2018-04-23T15:44:55.084Z,50.29
2018-04-23T15:47:21.115Z,50.61
2018-04-23T15:49:47.096Z,50.62
2018-04-23T15:52:13.036Z,51.23
2018-04-23T15:54:38.992Z,50.22
2018-04-23T15:57:04.947Z,50.13
2018-04-23T15:59:30.904Z,50.43
2018-04-23T16:01:56.889Z,50.28
2018-04-23T16:04:22.833Z,51.59
2018-04-23T16:06:48.795Z,50.75
2018-04-23T16:09:14.736Z,50.65
2018-04-23T16:11:40.781Z,50.65
2018-04-23T16:14:06.726Z,51.29
2018-04-23T16:16:32.669Z,51.95
2018-04-23T16:18:58.643Z,51.03
2018-04-23T16:21:24.583Z,50.77
2018-04-23T16:23:50.542Z,50.99
2018-04-23T16:26:16.493Z,51.37
2018-04-23T16:28:42.472Z,51.64
2018-04-23T16:31:08.413Z,52.49
2018-04-23T16:33:34.427Z,51.76
2018-04-23T16:36:00.380Z,53.26
2018-04-23T16:38:26.353Z,52.55
2018-04-23T16:40:52.303Z,52.87
2018-04-23T16:43:18.351Z,52.11
2018-04-23T16:45:44.324Z,51.50
2018-04-23T16:48:10.274Z,53.18
2018-04-23T16:50:36.224Z,51.88
2018-04-23T16:53:02.184Z,50.85
2018-04-23T16:55:28.132Z,50.47
2018-04-23T16:57:54.108Z,51.99
2018-04-23T17:00:20.059Z,50.95
2018-04-23T17:02:46.057Z,51.64
2018-04-23T17:05:11.955Z,51.09
2018-04-23T17:07:37.916Z,51.10
2018-04-23T17:10:03.867Z,51.64
2018-04-23T17:12:29.840Z,52.61
2018-04-23T17:14:55.789Z,51.51
2018-04-23T17:17:21.729Z,51.18
2018-04-23T17:19:47.688Z,50.13
2018-04-23T17:22:13.675Z,49.77
2018-04-23T17:24:39.621Z,49.28
2018-04-23T17:27:05.570Z,49.97
2018-04-23T17:29:31.558Z,49.67
2018-04-23T17:31:57.504Z,49.38
2018-04-23T17:34:23.451Z,49.51
2018-04-23T17:36:49.419Z,50.75
2018-04-23T17:39:15.413Z,49.57
2018-04-23T17:41:41.409Z,50.08
2018-04-23T17:44:07.305Z,50.01
2018-04-23T17:46:33.279Z,52.18
2018-04-23T17:48:59.285Z,53.01
2018-04-23T17:51:25.263Z,52.82
2018-04-23T17:53:51.252Z,53.87
2018-04-23T17:56:17.225Z,53.85
2018-04-23T17:58:43.207Z,54.09
2018-04-23T18:01:09.164Z,55.36
2018-04-23T18:03:35.148Z,54.52
2018-04-23T18:06:01.170Z,55.05
2018-04-23T18:08:27.109Z,55.64
2018-04-23T18:10:53.108Z,56.50
2018-04-23T18:13:19.047Z,55.34
2018-04-23T18:15:45.012Z,55.63
2018-04-23T18:18:11.017Z,55.96
2018-04-23T18:20:36.981Z,56.19
2018-04-23T18:23:02.975Z,55.97
2018-04-23T18:25:28.932Z,56.79
2018-04-23T18:27:54.876Z,56.49
2018-04-23T18:30:20.878Z,57.11
2018-04-23T18:32:46.880Z,56.73
2018-04-23T18:35:12.885Z,56.44
2018-04-23T18:37:38.776Z,56.48
2018-04-23T18:40:04.879Z,56.94
2018-04-23T18:42:30.836Z,57.29
2018-04-23T18:44:56.798Z,56.62
2018-04-23T18:47:22.862Z,57.39
2018-04-23T18:49:48.826Z,57.64
2018-04-23T18:52:14.773Z,58.12
2018-04-23T18:54:40.738Z,58.70
2018-04-23T18:57:06.779Z,59.00
2018-04-23T18:59:32.719Z,58.29
2018-04-23T19:01:58.719Z,58.43
2018-04-23T19:04:24.761Z,58.03
2018-04-23T19:06:50.719Z,57.90
2018-04-23T19:09:16.674Z,58.00
2018-04-23T19:11:42.654Z,57.58
2018-04-23T19:14:08.602Z,58.60
2018-04-23T19:16:34.607Z,58.71
2018-04-23T19:19:00.604Z,58.51
2018-04-23T19:21:26.647Z,58.95
2018-04-23T19:23:52.713Z,58.15
2018-04-23T19:26:18.659Z,58.18
2018-04-23T19:28:44.601Z,57.69
2018-04-23T19:31:10.750Z,58.35
2018-04-23T19:33:36.775Z,58.20
2018-04-23T19:36:02.745Z,58.81
2018-04-23T19:38:28.767Z,58.04
2018-04-23T19:40:54.719Z,58.16
2018-04-23T19:43:20.730Z,58.19
2018-04-23T19:45:46.718Z,57.94
2018-04-23T19:48:12.665Z,57.38
2018-04-23T19:50:38.664Z,58.11
2018-04-23T19:53:04.615Z,58.14
2018-04-23T19:55:30.590Z,56.56
2018-04-23T19:57:56.560Z,58.19
2018-04-23T20:00:22.657Z,58.28
2018-04-23T20:02:48.624Z,57.27
2018-04-23T20:05:14.609Z,56.13
2018-04-23T20:07:40.574Z,56.19
2018-04-23T20:10:06.592Z,57.41
2018-04-23T20:12:32.519Z,58.16
2018-04-23T20:14:58.536Z,57.11
2018-04-23T20:17:24.444Z,58.41
2018-04-23T20:19:50.404Z,57.97
2018-04-23T20:22:16.344Z,59.73
2018-04-23T20:24:42.329Z,58.14
2018-04-23T20:27:08.293Z,60.03
2018-04-23T20:29:34.242Z,59.77
2018-04-23T20:32:00.244Z,58.71
2018-04-23T20:34:26.220Z,59.78
2018-04-23T20:36:52.216Z,59.16
2018-04-23T20:39:18.191Z,58.76
2018-04-23T20:41:44.153Z,58.92
2018-04-23T20:44:10.105Z,58.95
2018-04-23T20:46:36.055Z,59.50
2018-04-23T20:49:02.033Z,59.24
2018-04-23T20:51:28.020Z,59.70
2018-04-23T20:53:53.978Z,59.50
2018-04-23T20:56:19.984Z,59.80
2018-04-23T20:58:45.929Z,59.86
2018-04-23T21:01:11.918Z,59.37
2018-04-23T21:03:37.853Z,59.61
2018-04-23T21:06:03.796Z,59.97
2018-04-23T21:08:29.770Z,59.59
2018-04-23T21:10:55.724Z,59.74
2018-04-23T21:13:21.664Z,59.77
2018-04-23T21:15:47.630Z,59.93
2018-04-23T21:18:13.657Z,59.54
2018-04-23T21:20:39.794Z,59.73
2018-04-23T21:23:05.756Z,59.63
2018-04-23T21:25:31.711Z,59.42
2018-04-23T21:27:57.649Z,59.55
2018-04-23T21:30:23.594Z,59.81
2018-04-23T21:32:49.583Z,59.74
2018-04-23T21:35:15.525Z,59.49
2018-04-23T21:37:41.505Z,59.82
2018-04-23T21:40:07.440Z,59.90
2018-04-23T21:42:33.377Z,59.38
2018-04-23T21:44:59.332Z,59.65
2018-04-23T21:47:25.276Z,59.79
2018-04-23T21:49:51.227Z,60.02
2018-04-23T21:52:17.176Z,59.92
2018-04-23T21:54:43.160Z,60.04
2018-04-23T21:57:09.136Z,59.74
2018-04-23T21:59:35.091Z,58.02
2018-04-23T22:02:01.037Z,57.50
2018-04-23T22:04:27.013Z,59.24
2018-04-23T22:06:52.952Z,58.56
2018-04-23T22:09:18.928Z,59.25
2018-04-23T22:11:44.884Z,59.53
2018-04-23T22:14:10.846Z,59.24
2018-04-23T22:16:36.801Z,59.50
2018-04-23T22:19:02.776Z,59.40
2018-04-23T22:21:28.762Z,59.46
2018-04-23T22:23:54.711Z,59.50
2018-04-23T22:26:20.660Z,59.48
2018-04-23T22:28:46.600Z,59.10
2018-04-23T22:31:12.580Z,59.74
2018-04-23T22:33:38.516Z,59.42
2018-04-23T22:36:04.487Z,59.63
2018-04-23T22:38:30.496Z,59.85
2018-04-23T22:40:56.431Z,59.91
2018-04-23T22:43:22.372Z,59.96
2018-04-23T22:45:48.452Z,59.83
2018-04-23T22:48:14.403Z,59.49
2018-04-23T22:50:40.337Z,59.50
2018-04-23T22:53:06.288Z,59.52
2018-04-23T22:55:32.228Z,59.49
2018-04-23T22:57:58.190Z,59.62
2018-04-23T23:00:24.123Z,59.45
2018-04-23T23:02:50.088Z,59.50
2018-04-23T23:05:16.101Z,59.48
2018-04-23T23:07:42.065Z,59.42
2018-04-23T23:10:08.004Z,59.48
2018-04-23T23:12:33.957Z,59.53
2018-04-23T23:14:59.891Z,59.77
2018-04-23T23:17:25.827Z,59.85
2018-04-23T23:19:51.808Z,59.76
2018-04-23T23:22:17.772Z,59.88
2018-04-23T23:24:43.817Z,59.97
2018-04-23T23:27:09.760Z,59.76
2018-04-23T23:29:35.772Z,59.83
2018-04-23T23:32:01.759Z,59.71
2018-04-23T23:34:27.732Z,59.28
2018-04-23T23:36:53.676Z,59.56
2018-04-23T23:39:19.616Z,59.36
2018-04-23T23:41:45.560Z,59.28
2018-04-23T23:44:11.525Z,59.43
2018-04-23T23:46:37.464Z,59.39
2018-04-23T23:49:03.489Z,59.47
2018-04-23T23:51:29.451Z,59.27
2018-04-23T23:53:55.387Z,59.26
2018-04-23T23:56:21.357Z,59.38
2018-04-23T23:58:47.293Z,59.16
